IPTRJ ENBR-EDDH
Flight info
| Callsign | IPTRJ |
|---|---|
| Flight time | 1h 26m |
| Altitude | 41000 |
| Route | TUXIL DCT ZOL DCT RAMUD DCT ALASA M852 EKERN/N0376F230 T905 BOGMU BOGMU3D |
| Aircraft | HDJT/L-SABDGRWY/H |
Departure
| Time | 2026-05-08 09:12 |
|---|---|
| Airport | Bergen Airport, Flesland (ENBR) |
Arrival
| Time | 2026-05-08 10:39 |
|---|---|
| Airport | Hamburg Helmut Schmidt Airport (EDDH) |
| Time | Latitude | Longitude | Altitude | Speed | Heading |
|---|---|---|---|---|---|
| 2026-05-08 08:34 | 60.28405 | 5.22686 | 141 ft | 0 kts | 96° |
| 2026-05-08 09:02 | 60.28404 | 5.22693 | 141 ft | 2 kts | 128° |
| 2026-05-08 09:02 | 60.28396 | 5.22682 | 140 ft | 3 kts | 293° |
| 2026-05-08 09:03 | 60.28411 | 5.22601 | 141 ft | 5 kts | 273° |
| 2026-05-08 09:03 | 60.28422 | 5.22565 | 141 ft | 2 kts | 336° |
| 2026-05-08 09:03 | 60.28425 | 5.22564 | 141 ft | 0 kts | 351° |
| 2026-05-08 09:05 | 60.28427 | 5.22563 | 141 ft | 2 kts | 351° |
| 2026-05-08 09:06 | 60.28461 | 5.22552 | 141 ft | 6 kts | 351° |
| 2026-05-08 09:06 | 60.28531 | 5.22532 | 142 ft | 15 kts | 352° |
| 2026-05-08 09:06 | 60.28611 | 5.22501 | 142 ft | 11 kts | 351° |
| 2026-05-08 09:06 | 60.28680 | 5.22471 | 143 ft | 9 kts | 321° |
| 2026-05-08 09:07 | 60.28693 | 5.22377 | 143 ft | 6 kts | 302° |
| 2026-05-08 09:07 | 60.28749 | 5.22338 | 144 ft | 10 kts | 351° |
| 2026-05-08 09:07 | 60.28815 | 5.22317 | 144 ft | 9 kts | 351° |
| 2026-05-08 09:07 | 60.28905 | 5.22284 | 145 ft | 17 kts | 349° |
| 2026-05-08 09:08 | 60.29039 | 5.22241 | 146 ft | 20 kts | 351° |
| 2026-05-08 09:08 | 60.29173 | 5.22196 | 147 ft | 19 kts | 351° |
| 2026-05-08 09:08 | 60.29299 | 5.22154 | 148 ft | 18 kts | 351° |
| 2026-05-08 09:08 | 60.29416 | 5.22113 | 149 ft | 17 kts | 351° |
| 2026-05-08 09:09 | 60.29526 | 5.22077 | 150 ft | 16 kts | 349° |
| 2026-05-08 09:09 | 60.29636 | 5.22040 | 151 ft | 19 kts | 350° |
| 2026-05-08 09:09 | 60.29756 | 5.21997 | 152 ft | 19 kts | 350° |
| 2026-05-08 09:09 | 60.29891 | 5.21952 | 153 ft | 17 kts | 351° |
| 2026-05-08 09:10 | 60.29974 | 5.21925 | 154 ft | 12 kts | 351° |
| 2026-05-08 09:10 | 60.30039 | 5.21873 | 155 ft | 9 kts | 303° |
| 2026-05-08 09:10 | 60.30043 | 5.21774 | 155 ft | 7 kts | 259° |
| 2026-05-08 09:10 | 60.30036 | 5.21688 | 155 ft | 6 kts | 261° |
| 2026-05-08 09:11 | 60.30017 | 5.21601 | 156 ft | 8 kts | 219° |
| 2026-05-08 09:11 | 60.30004 | 5.21594 | 156 ft | 0 kts | 168° |
| 2026-05-08 09:11 | 60.29998 | 5.21596 | 157 ft | 8 kts | 169° |
| 2026-05-08 09:12 | 60.29718 | 5.21689 | 154 ft | 84 kts | 170° |
| 2026-05-08 09:12 | 60.28979 | 5.21925 | 415 ft | 117 kts | 172° |
| 2026-05-08 09:12 | 60.28154 | 5.22193 | 1038 ft | 121 kts | 170° |
| 2026-05-08 09:12 | 60.27319 | 5.22459 | 1799 ft | 123 kts | 172° |
| 2026-05-08 09:13 | 60.26443 | 5.22741 | 2365 ft | 138 kts | 171° |
| 2026-05-08 09:13 | 60.25413 | 5.23072 | 2824 ft | 159 kts | 171° |
| 2026-05-08 09:13 | 60.24261 | 5.23457 | 3370 ft | 177 kts | 170° |
| 2026-05-08 09:13 | 60.23008 | 5.23881 | 4001 ft | 187 kts | 171° |
| 2026-05-08 09:14 | 60.21698 | 5.24318 | 4728 ft | 194 kts | 172° |
| 2026-05-08 09:14 | 60.20358 | 5.24762 | 5430 ft | 202 kts | 172° |
| 2026-05-08 09:14 | 60.18929 | 5.25257 | 5965 ft | 219 kts | 172° |
| 2026-05-08 09:14 | 60.17445 | 5.25796 | 6556 ft | 209 kts | 172° |
| 2026-05-08 09:15 | 60.15999 | 5.26283 | 7333 ft | 213 kts | 173° |
| 2026-05-08 09:15 | 60.14523 | 5.26767 | 8097 ft | 217 kts | 174° |
| 2026-05-08 09:15 | 60.13024 | 5.27264 | 8858 ft | 220 kts | 174° |
| 2026-05-08 09:15 | 60.11500 | 5.27770 | 9641 ft | 223 kts | 174° |
| 2026-05-08 09:16 | 60.09955 | 5.28284 | 10389 ft | 227 kts | 175° |
| 2026-05-08 09:16 | 60.08417 | 5.28729 | 11135 ft | 227 kts | 177° |
| 2026-05-08 09:16 | 60.06851 | 5.29144 | 11905 ft | 228 kts | 176° |
| 2026-05-08 09:16 | 60.05271 | 5.29575 | 12631 ft | 230 kts | 176° |
| 2026-05-08 09:17 | 60.03683 | 5.30004 | 13453 ft | 230 kts | 177° |
| 2026-05-08 09:17 | 60.02087 | 5.30432 | 14199 ft | 232 kts | 177° |
| 2026-05-08 09:17 | 60.00462 | 5.30863 | 14786 ft | 238 kts | 176° |
| 2026-05-08 09:17 | 59.98813 | 5.31306 | 15481 ft | 240 kts | 176° |
| 2026-05-08 09:18 | 59.97150 | 5.31752 | 16194 ft | 242 kts | 176° |
| 2026-05-08 09:18 | 59.95473 | 5.32200 | 16914 ft | 244 kts | 176° |
| 2026-05-08 09:18 | 59.93803 | 5.32644 | 17629 ft | 247 kts | 176° |
| 2026-05-08 09:18 | 59.92093 | 5.33100 | 18350 ft | 249 kts | 176° |
| 2026-05-08 09:19 | 59.90368 | 5.33560 | 18998 ft | 251 kts | 176° |
| 2026-05-08 09:19 | 59.88629 | 5.34022 | 19649 ft | 253 kts | 176° |
| 2026-05-08 09:19 | 59.86872 | 5.34487 | 20292 ft | 256 kts | 176° |
| 2026-05-08 09:19 | 59.85096 | 5.34959 | 20937 ft | 259 kts | 176° |
| 2026-05-08 09:20 | 59.83304 | 5.35432 | 21590 ft | 261 kts | 176° |
| 2026-05-08 09:20 | 59.81494 | 5.35913 | 22251 ft | 264 kts | 176° |
| 2026-05-08 09:20 | 59.79662 | 5.36370 | 22921 ft | 266 kts | 179° |
| 2026-05-08 09:20 | 59.77834 | 5.36664 | 23580 ft | 269 kts | 180° |
| 2026-05-08 09:21 | 59.75959 | 5.36965 | 24146 ft | 272 kts | 179° |
| 2026-05-08 09:21 | 59.74072 | 5.37282 | 24708 ft | 274 kts | 179° |
| 2026-05-08 09:22 | 59.63120 | 5.39228 | 27663 ft | 285 kts | 176° |
| 2026-05-08 09:23 | 59.61145 | 5.39744 | 28147 ft | 287 kts | 176° |
| 2026-05-08 09:23 | 59.58506 | 5.40413 | 28767 ft | 290 kts | 176° |
| 2026-05-08 09:23 | 59.56503 | 5.40917 | 29228 ft | 291 kts | 176° |
| 2026-05-08 09:23 | 59.54483 | 5.41429 | 29667 ft | 293 kts | 176° |
| 2026-05-08 09:24 | 59.52450 | 5.41945 | 30105 ft | 295 kts | 176° |
| 2026-05-08 09:24 | 59.50405 | 5.42462 | 30488 ft | 297 kts | 176° |
| 2026-05-08 09:24 | 59.49047 | 5.42803 | 30738 ft | 297 kts | 176° |
| 2026-05-08 09:24 | 59.46999 | 5.43320 | 31147 ft | 296 kts | 175° |
| 2026-05-08 09:25 | 59.44962 | 5.43835 | 31584 ft | 294 kts | 175° |
| 2026-05-08 09:25 | 59.42937 | 5.44343 | 32023 ft | 292 kts | 175° |
| 2026-05-08 09:25 | 59.40275 | 5.45017 | 32604 ft | 290 kts | 174° |
| 2026-05-08 09:25 | 59.38291 | 5.45734 | 33067 ft | 289 kts | 172° |
| 2026-05-08 09:26 | 59.36961 | 5.46230 | 33412 ft | 287 kts | 173° |
| 2026-05-08 09:26 | 59.35000 | 5.46943 | 33904 ft | 285 kts | 173° |
| 2026-05-08 09:26 | 59.33082 | 5.47635 | 34345 ft | 284 kts | 173° |
| 2026-05-08 09:26 | 59.31136 | 5.48342 | 34661 ft | 285 kts | 173° |
| 2026-05-08 09:27 | 59.29180 | 5.49054 | 34971 ft | 287 kts | 173° |
| 2026-05-08 09:27 | 59.27212 | 5.49769 | 35271 ft | 288 kts | 173° |
| 2026-05-08 09:27 | 59.25234 | 5.50487 | 35563 ft | 290 kts | 173° |
| 2026-05-08 09:27 | 59.23243 | 5.51208 | 35853 ft | 292 kts | 173° |
| 2026-05-08 09:28 | 59.21242 | 5.51932 | 36138 ft | 293 kts | 173° |
| 2026-05-08 09:28 | 59.19232 | 5.52659 | 36408 ft | 295 kts | 173° |
| 2026-05-08 09:28 | 59.17211 | 5.53388 | 36688 ft | 296 kts | 173° |
| 2026-05-08 09:28 | 59.15206 | 5.54113 | 36962 ft | 298 kts | 173° |
| 2026-05-08 09:29 | 59.13164 | 5.54847 | 37245 ft | 299 kts | 173° |
| 2026-05-08 09:29 | 59.11114 | 5.55585 | 37520 ft | 300 kts | 173° |
| 2026-05-08 09:29 | 59.09056 | 5.56324 | 37791 ft | 302 kts | 173° |
| 2026-05-08 09:29 | 59.06987 | 5.57068 | 38060 ft | 303 kts | 173° |
| 2026-05-08 09:30 | 59.04899 | 5.57814 | 38178 ft | 309 kts | 173° |
| 2026-05-08 09:30 | 59.00548 | 5.59368 | 38182 ft | 326 kts | 173° |
| 2026-05-08 09:31 | 58.96021 | 5.60986 | 38194 ft | 340 kts | 173° |
| 2026-05-08 09:31 | 58.91285 | 5.62672 | 38195 ft | 351 kts | 173° |
| 2026-05-08 09:32 | 58.86520 | 5.65295 | 38192 ft | 365 kts | 158° |
| 2026-05-08 09:32 | 58.82173 | 5.70155 | 38193 ft | 342 kts | 153° |
| 2026-05-08 09:32 | 58.80189 | 5.72416 | 38442 ft | 320 kts | 154° |
| 2026-05-08 09:33 | 58.78310 | 5.74545 | 38692 ft | 311 kts | 154° |
| 2026-05-08 09:33 | 58.76440 | 5.76667 | 38922 ft | 313 kts | 154° |
| 2026-05-08 09:33 | 58.74591 | 5.78776 | 39115 ft | 314 kts | 154° |
| 2026-05-08 09:33 | 58.72707 | 5.80924 | 39314 ft | 315 kts | 154° |
| 2026-05-08 09:34 | 58.70818 | 5.83069 | 39515 ft | 316 kts | 154° |
| 2026-05-08 09:34 | 58.68923 | 5.85218 | 39719 ft | 317 kts | 154° |
| 2026-05-08 09:34 | 58.67021 | 5.87374 | 39929 ft | 317 kts | 154° |
| 2026-05-08 09:34 | 58.65117 | 5.89529 | 40140 ft | 318 kts | 154° |
| 2026-05-08 09:35 | 58.63214 | 5.91680 | 40351 ft | 318 kts | 154° |
| 2026-05-08 09:35 | 58.61306 | 5.93833 | 40565 ft | 318 kts | 154° |
| 2026-05-08 09:35 | 58.59398 | 5.95984 | 40780 ft | 318 kts | 154° |
| 2026-05-08 09:35 | 58.57517 | 5.98103 | 40989 ft | 318 kts | 154° |
| 2026-05-08 09:36 | 58.55613 | 6.00245 | 41196 ft | 318 kts | 154° |
| 2026-05-08 09:36 | 58.51711 | 6.04618 | 41201 ft | 332 kts | 154° |
| 2026-05-08 09:37 | 58.47653 | 6.09164 | 41205 ft | 344 kts | 154° |
| 2026-05-08 09:37 | 58.43463 | 6.13841 | 41218 ft | 354 kts | 154° |
| 2026-05-08 09:38 | 58.39187 | 6.18602 | 41221 ft | 362 kts | 153° |
| 2026-05-08 09:38 | 58.34784 | 6.23489 | 41213 ft | 370 kts | 153° |
| 2026-05-08 09:39 | 58.30301 | 6.28452 | 41216 ft | 376 kts | 153° |
| 2026-05-08 09:39 | 58.25753 | 6.33470 | 41220 ft | 380 kts | 153° |
| 2026-05-08 09:40 | 58.21184 | 6.38497 | 41226 ft | 384 kts | 153° |
| 2026-05-08 09:40 | 58.16540 | 6.43590 | 41237 ft | 387 kts | 153° |
| 2026-05-08 09:41 | 58.11858 | 6.48711 | 41240 ft | 390 kts | 153° |
| 2026-05-08 09:41 | 58.07145 | 6.53849 | 41241 ft | 392 kts | 153° |
| 2026-05-08 09:42 | 58.02438 | 6.58963 | 41236 ft | 394 kts | 153° |
| 2026-05-08 09:42 | 57.97681 | 6.64117 | 41240 ft | 395 kts | 153° |
| 2026-05-08 09:43 | 57.92905 | 6.69276 | 41241 ft | 396 kts | 153° |
| 2026-05-08 09:43 | 57.88117 | 6.74432 | 41232 ft | 397 kts | 153° |
| 2026-05-08 09:44 | 57.83348 | 6.79550 | 41232 ft | 398 kts | 153° |
| 2026-05-08 09:44 | 57.78541 | 6.84694 | 41238 ft | 398 kts | 153° |
| 2026-05-08 09:45 | 57.73722 | 6.89834 | 41226 ft | 399 kts | 153° |
| 2026-05-08 09:45 | 57.68899 | 6.94964 | 41233 ft | 399 kts | 153° |
| 2026-05-08 09:46 | 57.64070 | 7.00083 | 41236 ft | 399 kts | 153° |
| 2026-05-08 09:46 | 57.59233 | 7.05196 | 41236 ft | 400 kts | 153° |
| 2026-05-08 09:47 | 57.54425 | 7.10262 | 41238 ft | 400 kts | 153° |
| 2026-05-08 09:47 | 57.49580 | 7.15351 | 41238 ft | 400 kts | 153° |
| 2026-05-08 09:48 | 57.44730 | 7.20430 | 41222 ft | 400 kts | 153° |
| 2026-05-08 09:48 | 57.39881 | 7.25492 | 41232 ft | 400 kts | 153° |
| 2026-05-08 09:49 | 57.35026 | 7.30545 | 41234 ft | 400 kts | 153° |
| 2026-05-08 09:49 | 57.30199 | 7.35553 | 41234 ft | 401 kts | 153° |
| 2026-05-08 09:50 | 57.25332 | 7.40589 | 41234 ft | 401 kts | 153° |
| 2026-05-08 09:50 | 57.20459 | 7.45614 | 41234 ft | 401 kts | 153° |
| 2026-05-08 09:51 | 57.15587 | 7.50624 | 41229 ft | 401 kts | 153° |
| 2026-05-08 09:51 | 57.10709 | 7.55624 | 41231 ft | 401 kts | 153° |
| 2026-05-08 09:52 | 57.05828 | 7.60616 | 41237 ft | 402 kts | 152° |
| 2026-05-08 09:52 | 57.01081 | 7.65927 | 41236 ft | 402 kts | 151° |
| 2026-05-08 09:53 | 56.96297 | 7.71252 | 41234 ft | 402 kts | 151° |
| 2026-05-08 09:53 | 56.91512 | 7.76583 | 41237 ft | 403 kts | 151° |
| 2026-05-08 09:54 | 56.86719 | 7.81898 | 41237 ft | 403 kts | 151° |
| 2026-05-08 09:54 | 56.81923 | 7.87204 | 41237 ft | 403 kts | 151° |
| 2026-05-08 09:55 | 56.77119 | 7.92502 | 41237 ft | 404 kts | 151° |
| 2026-05-08 09:55 | 56.72344 | 7.97752 | 41240 ft | 404 kts | 151° |
| 2026-05-08 09:56 | 56.67529 | 8.03030 | 41237 ft | 404 kts | 151° |
| 2026-05-08 09:56 | 56.62709 | 8.08298 | 41238 ft | 404 kts | 151° |
| 2026-05-08 09:57 | 56.55477 | 8.16172 | 41231 ft | 404 kts | 151° |
| 2026-05-08 09:57 | 56.50681 | 8.21374 | 41231 ft | 405 kts | 151° |
| 2026-05-08 09:58 | 56.45848 | 8.26600 | 41230 ft | 405 kts | 151° |
| 2026-05-08 09:58 | 56.41003 | 8.31825 | 41225 ft | 405 kts | 151° |
| 2026-05-08 09:59 | 56.36161 | 8.37029 | 41225 ft | 406 kts | 151° |
| 2026-05-08 09:59 | 56.31307 | 8.42232 | 41225 ft | 406 kts | 152° |
| 2026-05-08 10:00 | 56.26487 | 8.47383 | 41229 ft | 406 kts | 152° |
| 2026-05-08 10:00 | 56.21631 | 8.52557 | 41216 ft | 406 kts | 152° |
| 2026-05-08 10:01 | 56.16770 | 8.57720 | 41224 ft | 406 kts | 152° |
| 2026-05-08 10:01 | 56.11907 | 8.62870 | 41222 ft | 406 kts | 152° |
| 2026-05-08 10:02 | 56.07037 | 8.68014 | 41220 ft | 406 kts | 152° |
| 2026-05-08 10:02 | 56.02225 | 8.73082 | 40435 ft | 399 kts | 152° |
| 2026-05-08 10:03 | 55.99830 | 8.75596 | 39745 ft | 399 kts | 152° |
| 2026-05-08 10:03 | 55.97467 | 8.78074 | 39065 ft | 400 kts | 152° |
| 2026-05-08 10:03 | 55.95076 | 8.80579 | 38411 ft | 398 kts | 152° |
| 2026-05-08 10:03 | 55.92687 | 8.83079 | 37728 ft | 397 kts | 151° |
| 2026-05-08 10:04 | 55.90312 | 8.85559 | 37065 ft | 394 kts | 151° |
| 2026-05-08 10:04 | 55.87955 | 8.88018 | 36425 ft | 391 kts | 151° |
| 2026-05-08 10:04 | 55.85617 | 8.90452 | 35804 ft | 388 kts | 151° |
| 2026-05-08 10:04 | 55.83292 | 8.92871 | 35196 ft | 386 kts | 150° |
| 2026-05-08 10:05 | 55.80982 | 8.95269 | 34602 ft | 383 kts | 150° |
| 2026-05-08 10:05 | 55.78690 | 8.97647 | 33976 ft | 380 kts | 150° |
| 2026-05-08 10:05 | 55.76436 | 8.99981 | 33298 ft | 381 kts | 150° |
| 2026-05-08 10:05 | 55.74141 | 9.02354 | 32610 ft | 382 kts | 150° |
| 2026-05-08 10:06 | 55.71840 | 9.04731 | 31956 ft | 384 kts | 150° |
| 2026-05-08 10:06 | 55.69531 | 9.07115 | 31317 ft | 385 kts | 150° |
| 2026-05-08 10:06 | 55.67213 | 9.09501 | 30694 ft | 386 kts | 150° |
| 2026-05-08 10:06 | 55.64890 | 9.11890 | 30038 ft | 387 kts | 150° |
| 2026-05-08 10:07 | 55.62558 | 9.14287 | 29322 ft | 389 kts | 150° |
| 2026-05-08 10:07 | 55.60207 | 9.16699 | 28621 ft | 391 kts | 150° |
| 2026-05-08 10:07 | 55.57865 | 9.19097 | 27944 ft | 388 kts | 150° |
| 2026-05-08 10:07 | 55.55568 | 9.21447 | 27286 ft | 385 kts | 150° |
| 2026-05-08 10:08 | 55.53259 | 9.23806 | 26638 ft | 382 kts | 150° |
| 2026-05-08 10:08 | 55.50964 | 9.26147 | 26120 ft | 380 kts | 150° |
| 2026-05-08 10:08 | 55.48679 | 9.28475 | 25619 ft | 378 kts | 150° |
| 2026-05-08 10:08 | 55.46411 | 9.30782 | 25127 ft | 374 kts | 150° |
| 2026-05-08 10:09 | 55.44165 | 9.33065 | 24643 ft | 371 kts | 150° |
| 2026-05-08 10:09 | 55.41932 | 9.35331 | 24166 ft | 369 kts | 151° |
| 2026-05-08 10:09 | 55.39719 | 9.37574 | 23666 ft | 366 kts | 151° |
| 2026-05-08 10:09 | 55.37519 | 9.39800 | 23240 ft | 363 kts | 151° |
| 2026-05-08 10:10 | 55.35326 | 9.42015 | 23237 ft | 364 kts | 151° |
| 2026-05-08 10:10 | 55.33130 | 9.44232 | 23227 ft | 365 kts | 151° |
| 2026-05-08 10:10 | 55.30948 | 9.46433 | 23230 ft | 367 kts | 151° |
| 2026-05-08 10:10 | 55.28736 | 9.48657 | 28329 ft | 366 kts | 152° |
| 2026-05-08 10:11 | 55.26474 | 9.50894 | 28102 ft | 381 kts | 150° |
| 2026-05-08 10:11 | 55.24152 | 9.53258 | 27425 ft | 387 kts | 150° |
| 2026-05-08 10:11 | 55.21829 | 9.55614 | 26664 ft | 385 kts | 150° |
| 2026-05-08 10:11 | 55.19512 | 9.57922 | 25913 ft | 381 kts | 151° |
| 2026-05-08 10:12 | 55.17220 | 9.60200 | 25174 ft | 377 kts | 150° |
| 2026-05-08 10:12 | 55.14959 | 9.62463 | 24454 ft | 373 kts | 150° |
| 2026-05-08 10:12 | 55.12720 | 9.64705 | 23728 ft | 369 kts | 151° |
| 2026-05-08 10:12 | 55.10492 | 9.66920 | 23239 ft | 368 kts | 151° |
| 2026-05-08 10:13 | 55.08285 | 9.69113 | 23242 ft | 371 kts | 151° |
| 2026-05-08 10:13 | 55.06047 | 9.71336 | 23237 ft | 370 kts | 151° |
| 2026-05-08 10:13 | 55.03816 | 9.73553 | 23236 ft | 369 kts | 151° |
| 2026-05-08 10:13 | 55.01581 | 9.75769 | 23243 ft | 370 kts | 151° |
| 2026-05-08 10:14 | 54.99339 | 9.77985 | 23239 ft | 370 kts | 151° |
| 2026-05-08 10:14 | 54.97115 | 9.80184 | 23244 ft | 366 kts | 151° |
| 2026-05-08 10:14 | 54.94899 | 9.82374 | 23244 ft | 367 kts | 151° |
| 2026-05-08 10:14 | 54.92674 | 9.84566 | 23238 ft | 369 kts | 151° |
| 2026-05-08 10:15 | 54.90443 | 9.86763 | 23241 ft | 368 kts | 151° |
| 2026-05-08 10:15 | 54.88248 | 9.88922 | 23241 ft | 368 kts | 151° |
| 2026-05-08 10:15 | 54.86011 | 9.91118 | 23241 ft | 371 kts | 151° |
| 2026-05-08 10:15 | 54.83725 | 9.93226 | 23246 ft | 373 kts | 158° |
| 2026-05-08 10:16 | 54.81256 | 9.94559 | 23250 ft | 370 kts | 169° |
| 2026-05-08 10:16 | 54.78704 | 9.95032 | 23248 ft | 370 kts | 181° |
| 2026-05-08 10:16 | 54.76146 | 9.94633 | 23254 ft | 369 kts | 191° |
| 2026-05-08 10:16 | 54.73635 | 9.93792 | 23243 ft | 367 kts | 191° |
| 2026-05-08 10:17 | 54.71111 | 9.92973 | 23245 ft | 369 kts | 191° |
| 2026-05-08 10:17 | 54.68617 | 9.92176 | 23241 ft | 370 kts | 191° |
| 2026-05-08 10:17 | 54.66085 | 9.91353 | 23240 ft | 370 kts | 191° |
| 2026-05-08 10:17 | 54.63563 | 9.90527 | 23232 ft | 369 kts | 191° |
| 2026-05-08 10:18 | 54.61043 | 9.89721 | 23232 ft | 368 kts | 191° |
| 2026-05-08 10:18 | 54.58520 | 9.88923 | 23156 ft | 370 kts | 191° |
| 2026-05-08 10:18 | 54.55999 | 9.88119 | 22720 ft | 367 kts | 192° |
| 2026-05-08 10:18 | 54.53486 | 9.87414 | 22252 ft | 366 kts | 186° |
| 2026-05-08 10:19 | 54.50950 | 9.87469 | 21780 ft | 363 kts | 174° |
| 2026-05-08 10:19 | 54.48483 | 9.88350 | 21326 ft | 363 kts | 163° |
| 2026-05-08 10:19 | 54.46149 | 9.90003 | 20845 ft | 362 kts | 156° |
| 2026-05-08 10:20 | 54.41672 | 9.93663 | 19918 ft | 357 kts | 156° |
| 2026-05-08 10:20 | 54.39433 | 9.95471 | 19465 ft | 355 kts | 156° |
| 2026-05-08 10:20 | 54.37211 | 9.97285 | 19010 ft | 352 kts | 155° |
| 2026-05-08 10:20 | 54.35005 | 9.99083 | 18550 ft | 350 kts | 155° |
| 2026-05-08 10:21 | 54.32812 | 10.00861 | 18065 ft | 348 kts | 155° |
| 2026-05-08 10:21 | 54.30631 | 10.02621 | 17613 ft | 345 kts | 155° |
| 2026-05-08 10:21 | 54.28468 | 10.04373 | 17165 ft | 343 kts | 155° |
| 2026-05-08 10:21 | 54.26349 | 10.06088 | 16725 ft | 340 kts | 155° |
| 2026-05-08 10:22 | 54.24218 | 10.07808 | 16285 ft | 338 kts | 155° |
| 2026-05-08 10:22 | 54.22104 | 10.09513 | 15846 ft | 335 kts | 155° |
| 2026-05-08 10:22 | 54.20001 | 10.11205 | 15411 ft | 333 kts | 155° |
| 2026-05-08 10:22 | 54.17917 | 10.12881 | 14980 ft | 330 kts | 155° |
| 2026-05-08 10:23 | 54.15846 | 10.14546 | 14547 ft | 328 kts | 155° |
| 2026-05-08 10:23 | 54.13791 | 10.16198 | 14112 ft | 325 kts | 155° |
| 2026-05-08 10:23 | 54.11753 | 10.17831 | 13652 ft | 322 kts | 155° |
| 2026-05-08 10:23 | 54.09735 | 10.19446 | 13233 ft | 319 kts | 155° |
| 2026-05-08 10:24 | 54.07731 | 10.21050 | 12820 ft | 318 kts | 155° |
| 2026-05-08 10:24 | 54.05734 | 10.22505 | 12412 ft | 316 kts | 162° |
| 2026-05-08 10:24 | 54.03585 | 10.23208 | 11998 ft | 315 kts | 175° |
| 2026-05-08 10:24 | 54.01403 | 10.23083 | 11583 ft | 313 kts | 187° |
| 2026-05-08 10:25 | 53.99297 | 10.22140 | 11165 ft | 314 kts | 200° |
| 2026-05-08 10:25 | 53.97403 | 10.20460 | 10927 ft | 300 kts | 212° |
| 2026-05-08 10:25 | 53.95838 | 10.18247 | 10701 ft | 290 kts | 225° |
| 2026-05-08 10:25 | 53.94582 | 10.15552 | 10471 ft | 293 kts | 236° |
| 2026-05-08 10:26 | 53.93662 | 10.12462 | 10246 ft | 294 kts | 245° |
| 2026-05-08 10:26 | 53.92846 | 10.09281 | 10002 ft | 293 kts | 244° |
| 2026-05-08 10:26 | 53.92050 | 10.06275 | 9764 ft | 274 kts | 244° |
| 2026-05-08 10:26 | 53.91294 | 10.03396 | 9548 ft | 262 kts | 245° |
| 2026-05-08 10:27 | 53.90636 | 10.00571 | 9347 ft | 255 kts | 255° |
| 2026-05-08 10:27 | 53.90438 | 9.97570 | 9148 ft | 260 kts | 272° |
| 2026-05-08 10:27 | 53.90767 | 9.94551 | 8948 ft | 263 kts | 289° |
| 2026-05-08 10:27 | 53.91602 | 9.91834 | 8746 ft | 259 kts | 309° |
| 2026-05-08 10:28 | 53.92852 | 9.89672 | 8535 ft | 256 kts | 325° |
| 2026-05-08 10:28 | 53.94381 | 9.88172 | 8337 ft | 253 kts | 335° |
| 2026-05-08 10:28 | 53.95945 | 9.86820 | 8134 ft | 251 kts | 335° |
| 2026-05-08 10:28 | 53.97494 | 9.85448 | 7934 ft | 252 kts | 335° |
| 2026-05-08 10:29 | 53.99028 | 9.84100 | 7737 ft | 250 kts | 335° |
| 2026-05-08 10:29 | 54.00577 | 9.82748 | 7541 ft | 251 kts | 336° |
| 2026-05-08 10:29 | 54.02124 | 9.81392 | 7341 ft | 250 kts | 335° |
| 2026-05-08 10:29 | 54.03598 | 9.79849 | 7145 ft | 251 kts | 319° |
| 2026-05-08 10:30 | 54.04600 | 9.77414 | 6944 ft | 254 kts | 294° |
| 2026-05-08 10:30 | 54.04931 | 9.74475 | 6750 ft | 255 kts | 268° |
| 2026-05-08 10:30 | 54.04524 | 9.71579 | 6549 ft | 252 kts | 243° |
| 2026-05-08 10:30 | 54.03470 | 9.69248 | 6334 ft | 248 kts | 217° |
| 2026-05-08 10:31 | 54.02005 | 9.67869 | 6049 ft | 243 kts | 192° |
| 2026-05-08 10:31 | 54.00365 | 9.67591 | 5786 ft | 234 kts | 169° |
| 2026-05-08 10:31 | 53.98841 | 9.68367 | 5567 ft | 227 kts | 148° |
| 2026-05-08 10:31 | 53.97445 | 9.69602 | 5368 ft | 226 kts | 148° |
| 2026-05-08 10:32 | 53.96051 | 9.70834 | 5191 ft | 226 kts | 148° |
| 2026-05-08 10:32 | 53.94658 | 9.72058 | 5012 ft | 225 kts | 148° |
| 2026-05-08 10:32 | 53.93269 | 9.73276 | 4816 ft | 224 kts | 148° |
| 2026-05-08 10:32 | 53.91892 | 9.74489 | 4646 ft | 223 kts | 148° |
| 2026-05-08 10:33 | 53.90512 | 9.75697 | 4463 ft | 223 kts | 148° |
| 2026-05-08 10:33 | 53.89154 | 9.76878 | 4285 ft | 222 kts | 148° |
| 2026-05-08 10:33 | 53.87788 | 9.78076 | 4111 ft | 221 kts | 148° |
| 2026-05-08 10:33 | 53.86424 | 9.79269 | 4000 ft | 220 kts | 149° |
| 2026-05-08 10:34 | 53.85062 | 9.80460 | 3999 ft | 221 kts | 149° |
| 2026-05-08 10:34 | 53.83693 | 9.81648 | 4003 ft | 222 kts | 149° |
| 2026-05-08 10:34 | 53.82316 | 9.82844 | 3848 ft | 222 kts | 149° |
| 2026-05-08 10:34 | 53.80949 | 9.84053 | 3556 ft | 220 kts | 149° |
| 2026-05-08 10:35 | 53.79610 | 9.85193 | 3253 ft | 211 kts | 149° |
| 2026-05-08 10:35 | 53.78344 | 9.86353 | 2964 ft | 202 kts | 148° |
| 2026-05-08 10:35 | 53.77128 | 9.87391 | 2698 ft | 197 kts | 149° |
| 2026-05-08 10:35 | 53.75919 | 9.88388 | 2421 ft | 184 kts | 149° |
| 2026-05-08 10:36 | 53.74778 | 9.89410 | 2172 ft | 194 kts | 148° |
| 2026-05-08 10:36 | 53.73567 | 9.90475 | 1893 ft | 190 kts | 149° |
| 2026-05-08 10:36 | 53.72497 | 9.91389 | 1642 ft | 158 kts | 148° |
| 2026-05-08 10:36 | 53.71522 | 9.92164 | 1332 ft | 152 kts | 152° |
| 2026-05-08 10:37 | 53.70599 | 9.92921 | 1159 ft | 144 kts | 149° |
| 2026-05-08 10:37 | 53.69727 | 9.93672 | 1059 ft | 137 kts | 149° |
| 2026-05-08 10:37 | 53.68929 | 9.94372 | 824 ft | 123 kts | 144° |
| 2026-05-08 10:37 | 53.68174 | 9.95099 | 638 ft | 132 kts | 149° |
| 2026-05-08 10:38 | 53.67359 | 9.95801 | 569 ft | 129 kts | 151° |
| 2026-05-08 10:38 | 53.66580 | 9.96502 | 347 ft | 127 kts | 150° |
| 2026-05-08 10:38 | 53.65805 | 9.97171 | 197 ft | 122 kts | 148° |
| 2026-05-08 10:38 | 53.65082 | 9.97825 | 50 ft | 109 kts | 147° |
| 2026-05-08 10:39 | 53.64517 | 9.98321 | 33 ft | 75 kts | 153° |
| 2026-05-08 10:39 | 53.64117 | 9.98665 | 37 ft | 38 kts | 153° |
| 2026-05-08 10:39 | 53.63980 | 9.98851 | 36 ft | 24 kts | 131° |
| 2026-05-08 10:39 | 53.63890 | 9.99052 | 37 ft | 3 kts | 126° |
| 2026-05-08 10:42 | 53.63882 | 9.99070 | 37 ft | 7 kts | 126° |
| 2026-05-08 10:42 | 53.63824 | 9.99204 | 38 ft | 21 kts | 126° |
| 2026-05-08 10:42 | 53.63717 | 9.99455 | 39 ft | 28 kts | 125° |
| 2026-05-08 10:43 | 53.63604 | 9.99717 | 40 ft | 27 kts | 126° |
| 2026-05-08 10:43 | 53.63494 | 9.99974 | 40 ft | 27 kts | 126° |
| 2026-05-08 10:43 | 53.63407 | 10.00018 | 40 ft | 14 kts | 221° |
| 2026-05-08 10:43 | 53.63392 | 9.99998 | 40 ft | 1 kts | 221° |
| 2026-05-08 10:44 | 53.63395 | 9.99987 | 40 ft | 3 kts | 355° |
| 2026-05-08 10:44 | 53.63419 | 10.00046 | 40 ft | 9 kts | 54° |
| 2026-05-08 10:44 | 53.63442 | 10.00150 | 40 ft | 9 kts | 139° |
| 2026-05-08 10:44 | 53.63385 | 10.00160 | 40 ft | 11 kts | 176° |
| 2026-05-08 10:45 | 53.63282 | 10.00173 | 40 ft | 18 kts | 176° |
| 2026-05-08 10:45 | 53.63155 | 10.00188 | 40 ft | 19 kts | 176° |
| 2026-05-08 10:45 | 53.63035 | 10.00146 | 40 ft | 18 kts | 212° |
| 2026-05-08 10:45 | 53.62938 | 10.00041 | 40 ft | 6 kts | 220° |
| 2026-05-08 10:46 | 53.62906 | 10.00033 | 40 ft | 13 kts | 154° |
| 2026-05-08 10:46 | 53.62833 | 9.99989 | 41 ft | 11 kts | 211° |
| 2026-05-08 10:46 | 53.62766 | 9.99924 | 43 ft | 13 kts | 209° |
| 2026-05-08 10:46 | 53.62659 | 9.99821 | 42 ft | 21 kts | 227° |
| 2026-05-08 10:47 | 53.62619 | 9.99577 | 40 ft | 22 kts | 259° |
| 2026-05-08 10:47 | 53.62589 | 9.99316 | 40 ft | 23 kts | 259° |
| 2026-05-08 10:47 | 53.62633 | 9.99103 | 39 ft | 14 kts | 330° |
| 2026-05-08 10:47 | 53.62653 | 9.99110 | 39 ft | 5 kts | 75° |
| 2026-05-08 10:48 | 53.62677 | 9.99204 | 39 ft | 2 kts | 67° |